createdAt,value
2019-05-18T00:00:46.037Z,13.27
2019-05-18T00:03:20.858Z,12.57
2019-05-18T00:05:55.729Z,12.50
2019-05-18T00:08:30.399Z,12.10
2019-05-18T00:11:05.753Z,11.90
2019-05-18T00:13:42.181Z,11.80
2019-05-18T00:16:17.353Z,12.17
2019-05-18T00:18:52.221Z,12.50
2019-05-18T00:21:27.237Z,11.37
2019-05-18T00:24:02.072Z,12.63
2019-05-18T00:26:36.835Z,12.03
2019-05-18T00:29:11.676Z,12.00
2019-05-18T00:31:46.874Z,11.17
2019-05-18T00:34:21.825Z,10.73
2019-05-18T00:37:00.005Z,11.27
2019-05-18T00:39:38.420Z,11.37
2019-05-18T00:42:13.511Z,10.60
2019-05-18T00:44:51.038Z,11.07
2019-05-18T00:47:40.289Z,10.97
2019-05-18T00:50:02.769Z,10.80
2019-05-18T00:52:38.383Z,10.60
2019-05-18T00:55:32.861Z,10.50
2019-05-18T00:58:09.390Z,8.27
2019-05-18T01:00:44.271Z,8.63
2019-05-18T01:03:19.327Z,8.37
2019-05-18T01:05:56.236Z,9.73
2019-05-18T01:08:31.184Z,8.57
2019-05-18T01:11:06.196Z,8.33
2019-05-18T01:13:53.857Z,8.20
2019-05-18T01:16:28.620Z,8.83
2019-05-18T01:19:03.927Z,8.33
2019-05-18T01:21:58.502Z,8.40
2019-05-18T01:24:33.754Z,8.17
2019-05-18T01:27:09.378Z,7.57
2019-05-18T01:29:45.476Z,7.10
2019-05-18T01:32:20.555Z,7.60
2019-05-18T01:34:55.248Z,7.97
2019-05-18T01:37:30.560Z,8.00
2019-05-18T01:40:05.505Z,8.07
2019-05-18T01:42:41.741Z,7.80
2019-05-18T01:45:17.547Z,7.47
2019-05-18T01:47:55.797Z,7.80
2019-05-18T01:50:34.639Z,7.13
2019-05-18T01:53:27.241Z,7.20
2019-05-18T01:56:02.362Z,7.40
2019-05-18T01:58:37.358Z,6.00
2019-05-18T02:01:12.909Z,7.07
2019-05-18T02:03:48.057Z,6.47
2019-05-18T02:06:23.786Z,6.30
2019-05-18T02:09:01.842Z,6.87
2019-05-18T02:11:37.786Z,6.20
2019-05-18T02:14:14.740Z,6.93
2019-05-18T02:16:50.095Z,6.60
2019-05-18T02:19:25.435Z,7.03
2019-05-18T02:22:00.284Z,6.20
2019-05-18T02:24:35.261Z,6.57
2019-05-18T02:27:10.105Z,6.60
2019-05-18T02:29:44.959Z,6.13
2019-05-18T02:32:20.084Z,6.80
2019-05-18T02:34:55.172Z,6.07
2019-05-18T02:37:30.083Z,5.60
2019-05-18T02:40:05.104Z,6.73
2019-05-18T02:42:42.288Z,6.27
2019-05-18T02:45:17.728Z,5.77
2019-05-18T02:47:53.047Z,6.13
2019-05-18T02:50:29.640Z,5.77
2019-05-18T02:53:04.978Z,5.13
2019-05-18T02:55:39.850Z,5.70
2019-05-18T02:58:14.890Z,5.40
2019-05-18T03:00:49.755Z,5.73
2019-05-18T03:03:24.755Z,6.00
2019-05-18T03:05:59.687Z,5.03
2019-05-18T03:08:34.617Z,5.80
2019-05-18T03:11:09.429Z,6.03
2019-05-18T03:13:45.685Z,6.30
2019-05-18T03:16:20.557Z,5.67
2019-05-18T03:19:07.380Z,6.00
2019-05-18T03:21:32.873Z,5.90
2019-05-18T03:24:08.223Z,6.50
2019-05-18T03:26:44.767Z,5.40
2019-05-18T03:29:20.126Z,4.80
2019-05-18T03:31:54.995Z,5.77
2019-05-18T03:34:31.896Z,4.23
2019-05-18T03:37:07.350Z,4.93
2019-05-18T03:39:43.727Z,5.10
2019-05-18T03:42:20.275Z,5.53
2019-05-18T03:44:55.944Z,5.57
2019-05-18T03:47:31.371Z,5.47
2019-05-18T03:50:06.568Z,4.93
2019-05-18T03:52:41.903Z,5.67
2019-05-18T03:55:17.150Z,4.17
2019-05-18T03:57:52.296Z,4.67
2019-05-18T04:00:27.697Z,5.43
2019-05-18T04:03:02.973Z,4.73
2019-05-18T04:05:38.091Z,5.13
2019-05-18T04:08:12.916Z,4.70
2019-05-18T04:10:47.804Z,5.73
2019-05-18T04:13:22.892Z,5.10
2019-05-18T04:15:57.609Z,5.60
2019-05-18T04:18:32.680Z,5.63
2019-05-18T04:21:11.474Z,5.37
2019-05-18T04:23:46.640Z,6.03
2019-05-18T04:26:21.571Z,5.53
2019-05-18T04:28:56.970Z,5.83
2019-05-18T04:31:32.572Z,5.93
2019-05-18T04:34:07.830Z,6.27
2019-05-18T04:36:42.837Z,5.97
2019-05-18T04:39:17.527Z,5.10
2019-05-18T04:41:53.084Z,5.50
2019-05-18T04:44:27.920Z,6.50
2019-05-18T04:47:03.458Z,5.57
2019-05-18T04:49:38.089Z,6.17
2019-05-18T04:52:13.259Z,5.57
2019-05-18T04:54:48.084Z,5.60
2019-05-18T04:57:23.118Z,5.53
2019-05-18T04:59:57.897Z,5.40
2019-05-18T05:02:32.884Z,4.90
2019-05-18T05:05:32.162Z,4.53
2019-05-18T05:08:30.234Z,5.30
2019-05-18T05:11:29.712Z,5.50
2019-05-18T05:14:39.496Z,6.50
2019-05-18T05:17:32.607Z,4.73
2019-05-18T05:20:30.296Z,6.30
2019-05-18T05:23:06.206Z,5.60
2019-05-18T05:25:41.928Z,5.47
2019-05-18T05:28:16.792Z,6.10
2019-05-18T05:30:51.888Z,6.37
2019-05-18T05:33:26.765Z,6.00
2019-05-18T05:36:20.850Z,6.20
2019-05-18T05:38:55.653Z,5.97
2019-05-18T05:41:30.829Z,5.40
2019-05-18T05:44:08.490Z,6.20
2019-05-18T05:46:43.907Z,7.17
2019-05-18T05:49:18.563Z,6.20
2019-05-18T05:51:53.407Z,6.10
2019-05-18T05:54:28.234Z,6.97
2019-05-18T05:57:03.238Z,6.83
2019-05-18T05:59:38.161Z,6.63
2019-05-18T06:02:14.529Z,6.53
2019-05-18T06:04:49.289Z,6.80
2019-05-18T06:07:24.474Z,6.90
2019-05-18T06:09:59.400Z,7.03
2019-05-18T06:12:36.113Z,6.20
2019-05-18T06:15:11.587Z,6.73
2019-05-18T06:17:47.393Z,6.17
2019-05-18T06:20:22.313Z,6.40
2019-05-18T06:22:57.733Z,6.57
2019-05-18T06:25:34.299Z,7.10
2019-05-18T06:28:08.761Z,6.13
2019-05-18T06:30:43.710Z,7.00
2019-05-18T06:33:18.984Z,6.87
2019-05-18T06:35:53.932Z,6.50
2019-05-18T06:38:28.961Z,6.80
2019-05-18T06:41:04.032Z,7.43
2019-05-18T06:43:39.273Z,7.70
2019-05-18T06:46:14.883Z,7.50
2019-05-18T06:48:52.045Z,7.57
2019-05-18T06:51:28.023Z,7.33
2019-05-18T06:54:02.794Z,7.60
2019-05-18T06:56:39.309Z,7.30
2019-05-18T06:59:16.335Z,8.30
2019-05-18T07:01:51.533Z,7.20
2019-05-18T07:04:26.786Z,7.23
2019-05-18T07:07:01.874Z,7.60
2019-05-18T07:09:36.983Z,7.93
2019-05-18T07:12:13.227Z,8.17
2019-05-18T07:14:49.787Z,8.20
2019-05-18T07:17:24.928Z,7.60
2019-05-18T07:20:00.422Z,8.40
2019-05-18T07:22:35.460Z,8.77
2019-05-18T07:25:12.272Z,9.87
2019-05-18T07:27:47.313Z,8.40
2019-05-18T07:30:24.112Z,10.03
2019-05-18T07:32:59.245Z,8.87
2019-05-18T07:35:35.103Z,8.43
2019-05-18T07:38:10.136Z,8.67
2019-05-18T07:40:45.152Z,8.73
2019-05-18T07:43:20.614Z,8.57
2019-05-18T07:45:55.456Z,8.40
2019-05-18T07:48:30.882Z,8.33
2019-05-18T07:51:05.798Z,9.00
2019-05-18T07:53:41.149Z,8.30
2019-05-18T07:56:16.319Z,9.43
2019-05-18T07:58:52.658Z,10.83
2019-05-18T08:01:27.704Z,10.03
2019-05-18T08:04:02.894Z,10.07
2019-05-18T08:06:38.083Z,9.67
2019-05-18T08:09:13.636Z,9.83
2019-05-18T08:11:48.936Z,10.67
2019-05-18T08:14:24.926Z,9.57
2019-05-18T08:17:00.290Z,9.50
2019-05-18T08:19:35.574Z,9.40
2019-05-18T08:22:20.897Z,10.23
2019-05-18T08:24:55.736Z,9.23
2019-05-18T08:27:30.900Z,9.60
2019-05-18T08:30:05.829Z,10.10
2019-05-18T08:32:44.191Z,10.90
2019-05-18T08:35:19.989Z,10.90
2019-05-18T08:37:55.434Z,9.67
2019-05-18T08:40:33.426Z,10.93
2019-05-18T08:43:09.544Z,9.83
2019-05-18T08:45:47.458Z,10.80
2019-05-18T08:48:25.478Z,11.03
2019-05-18T08:51:03.174Z,10.80
2019-05-18T08:53:37.304Z,9.30
2019-05-18T08:56:12.374Z,9.80
2019-05-18T08:58:47.396Z,10.00
2019-05-18T09:01:22.233Z,10.73
2019-05-18T09:03:58.860Z,10.40
2019-05-18T09:06:33.753Z,10.03
2019-05-18T09:09:11.133Z,9.77
2019-05-18T09:11:46.018Z,17.17
2019-05-18T09:14:21.309Z,17.17
2019-05-18T09:16:56.282Z,20.30
2019-05-18T09:19:31.430Z,22.97
2019-05-18T09:22:22.297Z,27.13
2019-05-18T09:24:42.856Z,36.23
2019-05-18T09:27:17.619Z,39.43
2019-05-18T09:29:53.746Z,38.97
2019-05-18T09:32:28.384Z,47.80
2019-05-18T09:35:03.428Z,46.27
2019-05-18T09:37:38.773Z,40.43
2019-05-18T09:40:14.405Z,39.53
2019-05-18T09:42:49.247Z,37.97
2019-05-18T09:45:24.357Z,36.43
2019-05-18T09:47:59.203Z,31.30
2019-05-18T09:50:34.285Z,27.40
2019-05-18T09:53:09.057Z,22.70
2019-05-18T09:55:44.503Z,23.80
2019-05-18T09:58:19.419Z,23.03
2019-05-18T10:00:54.556Z,21.70
2019-05-18T10:03:29.579Z,20.70
2019-05-18T10:06:05.611Z,20.53
2019-05-18T10:08:41.601Z,21.73
2019-05-18T10:11:18.272Z,21.30
2019-05-18T10:13:53.603Z,22.40
2019-05-18T10:16:29.042Z,22.43
2019-05-18T10:19:05.169Z,23.50
2019-05-18T10:21:40.584Z,23.33
2019-05-18T10:24:15.629Z,23.83
2019-05-18T10:26:50.789Z,20.97
2019-05-18T10:29:25.814Z,24.87
2019-05-18T10:32:01.051Z,27.93
2019-05-18T10:34:36.401Z,27.40
2019-05-18T10:37:11.539Z,28.67
2019-05-18T10:39:46.484Z,26.33
2019-05-18T10:42:22.175Z,24.07
2019-05-18T10:44:57.473Z,23.60
2019-05-18T10:47:32.571Z,24.03
2019-05-18T10:50:09.051Z,24.23
2019-05-18T10:52:44.031Z,21.73
2019-05-18T10:55:19.800Z,23.70
2019-05-18T10:57:54.814Z,23.07
2019-05-18T11:00:30.008Z,21.90
2019-05-18T11:03:04.919Z,22.07
2019-05-18T11:05:40.256Z,23.33
2019-05-18T11:08:15.231Z,20.57
2019-05-18T11:10:50.440Z,20.97
2019-05-18T11:13:25.784Z,20.10
2019-05-18T11:16:01.175Z,18.47
2019-05-18T11:18:36.837Z,18.57
2019-05-18T11:21:12.190Z,19.87
2019-05-18T11:23:48.122Z,19.87
2019-05-18T11:26:23.494Z,19.13
2019-05-18T11:28:58.925Z,20.40
2019-05-18T11:31:34.365Z,22.43
2019-05-18T11:34:09.453Z,22.43
2019-05-18T11:36:44.823Z,22.60
2019-05-18T11:39:19.701Z,20.73
2019-05-18T11:41:55.322Z,20.87
2019-05-18T11:44:30.381Z,21.70
2019-05-18T11:47:05.859Z,21.37
2019-05-18T11:49:40.676Z,21.43
2019-05-18T11:52:15.967Z,20.80
2019-05-18T11:54:50.928Z,21.50
2019-05-18T11:57:26.073Z,21.20
2019-05-18T12:00:01.099Z,23.70
2019-05-18T12:02:37.361Z,22.17
2019-05-18T12:05:12.549Z,22.50
2019-05-18T12:07:47.631Z,22.47
2019-05-18T12:10:22.589Z,22.23
2019-05-18T12:12:58.225Z,23.57
2019-05-18T12:15:33.191Z,24.43
2019-05-18T12:18:08.183Z,38.90
2019-05-18T12:20:43.255Z,73.47
2019-05-18T12:23:19.072Z,39.47
2019-05-18T12:25:53.808Z,34.20
2019-05-18T12:28:31.564Z,34.03
2019-05-18T12:31:06.839Z,33.37
2019-05-18T12:33:41.985Z,31.97
2019-05-18T12:36:17.937Z,22.23
2019-05-18T12:38:52.803Z,20.30
2019-05-18T12:41:34.042Z,21.23
2019-05-18T12:44:09.020Z,22.17
2019-05-18T12:46:43.795Z,21.93
2019-05-18T12:49:19.042Z,21.03
2019-05-18T12:51:53.694Z,22.13
2019-05-18T12:54:45.312Z,19.93
2019-05-18T12:57:06.220Z,19.10
2019-05-18T12:59:42.690Z,20.10
2019-05-18T13:02:17.746Z,19.87
2019-05-18T13:04:54.240Z,19.80
2019-05-18T13:07:32.035Z,20.27
2019-05-18T13:10:08.464Z,21.10
2019-05-18T13:12:43.396Z,20.27
2019-05-18T13:15:19.592Z,21.57
2019-05-18T13:17:54.720Z,20.60
2019-05-18T13:20:30.445Z,19.77
2019-05-18T13:23:05.391Z,19.97
2019-05-18T13:25:40.467Z,20.13
2019-05-18T13:28:15.488Z,19.77
2019-05-18T13:30:50.552Z,20.17
2019-05-18T13:33:25.333Z,20.33
2019-05-18T13:36:00.873Z,19.07
2019-05-18T13:38:35.790Z,21.37
2019-05-18T13:41:13.035Z,22.00
2019-05-18T13:43:48.245Z,20.00
2019-05-18T13:46:22.979Z,19.00
2019-05-18T13:48:58.096Z,19.07
2019-05-18T13:51:33.264Z,19.73
2019-05-18T13:54:08.345Z,18.47
2019-05-18T13:56:43.518Z,20.07
2019-05-18T13:59:19.959Z,18.93
2019-05-18T14:01:55.240Z,19.50
2019-05-18T14:04:30.147Z,18.73
2019-05-18T14:07:05.560Z,19.33
2019-05-18T14:09:40.613Z,21.73
2019-05-18T14:12:15.903Z,21.10
2019-05-18T14:14:50.819Z,22.63
2019-05-18T14:17:25.966Z,20.77
2019-05-18T14:20:00.859Z,21.87
2019-05-18T14:22:36.247Z,20.70
2019-05-18T14:25:19.317Z,20.90
2019-05-18T14:27:48.347Z,20.10
2019-05-18T14:30:24.111Z,21.37
2019-05-18T14:32:59.483Z,21.20
2019-05-18T14:35:34.313Z,22.83
2019-05-18T14:38:10.214Z,20.97
2019-05-18T14:40:45.186Z,21.43
2019-05-18T14:43:20.656Z,20.50
2019-05-18T14:45:56.495Z,21.13
2019-05-18T14:48:31.703Z,19.17
2019-05-18T14:51:06.703Z,19.93
2019-05-18T14:53:41.987Z,20.27
2019-05-18T14:56:16.942Z,19.30
2019-05-18T14:58:52.157Z,19.80
2019-05-18T15:01:27.222Z,20.10
2019-05-18T15:04:03.166Z,20.50
2019-05-18T15:06:38.008Z,20.70
2019-05-18T15:09:14.219Z,20.43
2019-05-18T15:11:48.915Z,20.73
2019-05-18T15:14:24.308Z,20.77
2019-05-18T15:16:59.401Z,20.17
2019-05-18T15:19:34.765Z,21.13
2019-05-18T15:22:10.578Z,20.33
2019-05-18T15:24:45.457Z,19.77
2019-05-18T15:27:20.543Z,19.30
2019-05-18T15:29:55.373Z,19.30
2019-05-18T15:32:30.527Z,20.17
2019-05-18T15:35:06.033Z,21.10
2019-05-18T15:37:43.563Z,20.20
2019-05-18T15:40:18.061Z,18.67
2019-05-18T15:42:52.833Z,20.53
2019-05-18T15:45:28.282Z,20.63
2019-05-18T15:48:03.226Z,20.37
2019-05-18T15:50:38.481Z,20.03
2019-05-18T15:53:13.603Z,20.13
2019-05-18T15:55:48.983Z,21.40
2019-05-18T15:58:23.724Z,20.80
2019-05-18T16:00:58.995Z,20.17
2019-05-18T16:03:52.578Z,21.03
2019-05-18T16:06:27.474Z,21.03
2019-05-18T16:09:02.614Z,20.70
2019-05-18T16:11:37.839Z,21.43
2019-05-18T16:14:13.012Z,20.33
2019-05-18T16:16:48.927Z,20.53
2019-05-18T16:19:23.903Z,19.77
2019-05-18T16:21:59.182Z,20.73
2019-05-18T16:24:34.174Z,22.10
2019-05-18T16:27:09.301Z,20.20
2019-05-18T16:29:44.248Z,21.47
2019-05-18T16:32:19.546Z,20.77
2019-05-18T16:34:55.099Z,21.37
2019-05-18T16:37:30.141Z,20.37
2019-05-18T16:43:51.189Z,22.13
2019-05-18T16:46:25.896Z,22.03
2019-05-18T16:49:00.892Z,22.53
2019-05-18T16:51:35.708Z,23.97
2019-05-18T16:54:10.562Z,22.73
2019-05-18T16:56:45.503Z,21.90
2019-05-18T16:59:20.958Z,22.43
2019-05-18T17:01:56.424Z,22.60
2019-05-18T17:04:31.799Z,22.30
2019-05-18T17:07:07.121Z,21.80
2019-05-18T17:09:41.974Z,21.93
2019-05-18T17:12:17.164Z,21.63
2019-05-18T17:14:51.954Z,20.73
2019-05-18T17:17:27.022Z,20.93
2019-05-18T17:20:01.887Z,21.30
2019-05-18T17:22:38.130Z,21.30
2019-05-18T17:25:13.057Z,21.33
2019-05-18T17:27:48.651Z,20.33
2019-05-18T17:30:23.763Z,22.43
2019-05-18T17:32:58.699Z,20.70
2019-05-18T17:35:33.555Z,20.67
2019-05-18T17:38:09.648Z,21.20
2019-05-18T17:40:44.331Z,21.17
2019-05-18T17:43:19.869Z,22.70
2019-05-18T17:45:54.938Z,20.67
2019-05-18T17:48:30.201Z,20.97
2019-05-18T17:51:05.024Z,21.00
2019-05-18T17:53:40.068Z,18.87
2019-05-18T17:56:15.044Z,19.97
2019-05-18T17:58:50.087Z,20.40
2019-05-18T18:01:25.113Z,20.83
2019-05-18T18:04:00.984Z,21.83
2019-05-18T18:06:35.902Z,21.20
2019-05-18T18:09:11.788Z,19.83
2019-05-18T18:11:46.903Z,21.37
2019-05-18T18:14:41.080Z,20.43
2019-05-18T18:17:17.852Z,20.70
2019-05-18T18:19:53.242Z,20.93
2019-05-18T18:22:28.447Z,21.10
2019-05-18T18:25:03.266Z,21.63
2019-05-18T18:27:38.649Z,20.30
2019-05-18T18:30:13.764Z,21.20
2019-05-18T18:32:49.171Z,19.80
2019-05-18T18:35:24.051Z,18.53
2019-05-18T18:38:00.192Z,20.20
2019-05-18T18:40:35.420Z,20.67
2019-05-18T18:43:10.750Z,20.83
2019-05-18T18:45:45.629Z,20.37
2019-05-18T18:48:21.569Z,20.93
2019-05-18T18:50:56.814Z,19.73
2019-05-18T18:53:32.687Z,19.77
2019-05-18T18:56:07.639Z,19.17
2019-05-18T18:58:43.238Z,18.60
2019-05-18T19:01:18.448Z,19.77
2019-05-18T19:03:53.727Z,21.27
2019-05-18T19:06:28.564Z,18.97
2019-05-18T19:09:04.119Z,19.70
2019-05-18T19:11:39.312Z,19.80
2019-05-18T19:14:30.254Z,19.90
2019-05-18T19:17:05.173Z,21.17
2019-05-18T19:19:40.311Z,19.63
2019-05-18T19:22:16.328Z,21.10
2019-05-18T19:24:51.172Z,20.43
2019-05-18T19:27:25.969Z,21.00
2019-05-18T19:30:02.889Z,21.10
2019-05-18T19:32:38.161Z,20.60
2019-05-18T19:35:13.498Z,20.77
2019-05-18T19:37:48.275Z,19.97
2019-05-18T19:40:24.306Z,20.50
2019-05-18T19:42:59.310Z,20.93
2019-05-18T19:45:35.177Z,20.50
2019-05-18T19:48:23.273Z,20.20
2019-05-18T19:50:58.299Z,20.57
2019-05-18T19:53:33.497Z,22.77
2019-05-18T19:56:08.365Z,22.77
2019-05-18T19:58:43.491Z,23.10
2019-05-18T20:01:18.926Z,23.13
2019-05-18T20:03:53.991Z,23.23
2019-05-18T20:06:28.999Z,22.70
2019-05-18T20:09:03.869Z,23.97
2019-05-18T20:11:40.876Z,25.27
2019-05-18T20:14:16.839Z,24.20
2019-05-18T20:16:52.147Z,26.80
2019-05-18T20:19:38.759Z,27.03
2019-05-18T20:22:03.410Z,23.53
2019-05-18T20:24:38.374Z,24.57
2019-05-18T20:27:13.587Z,24.03
2019-05-18T20:29:48.445Z,23.77
2019-05-18T20:32:23.967Z,24.47
2019-05-18T20:34:59.256Z,24.63
2019-05-18T20:37:35.303Z,25.63
2019-05-18T20:40:10.949Z,25.23
2019-05-18T20:42:45.780Z,24.53
2019-05-18T20:45:20.953Z,25.27
2019-05-18T20:47:55.724Z,24.00
2019-05-18T20:50:31.000Z,25.20
2019-05-18T20:53:06.392Z,24.53
2019-05-18T20:55:42.149Z,25.73
2019-05-18T20:58:17.113Z,25.30
2019-05-18T21:00:52.272Z,24.23
2019-05-18T21:03:27.134Z,23.43
2019-05-18T21:06:03.312Z,23.47
2019-05-18T21:08:38.600Z,23.43
2019-05-18T21:11:15.273Z,23.63
2019-05-18T21:13:49.972Z,23.40
2019-05-18T21:16:25.441Z,23.33
2019-05-18T21:19:00.120Z,22.37
2019-05-18T21:21:35.465Z,23.77
2019-05-18T21:24:10.210Z,24.17
2019-05-18T21:26:45.364Z,22.53
2019-05-18T21:29:20.301Z,20.50
2019-05-18T21:31:55.368Z,21.00
2019-05-18T21:34:30.038Z,20.07
2019-05-18T21:37:05.171Z,20.93
2019-05-18T21:39:40.228Z,19.13
2019-05-18T21:42:16.077Z,20.37
2019-05-18T21:44:51.417Z,21.57
2019-05-18T21:47:26.495Z,22.73
2019-05-18T21:50:01.457Z,20.77
2019-05-18T21:52:36.932Z,20.63
2019-05-18T21:55:13.173Z,19.23
2019-05-18T21:57:48.287Z,20.17
2019-05-18T22:00:41.854Z,19.70
2019-05-18T22:03:18.442Z,19.90
2019-05-18T22:05:58.729Z,19.67
2019-05-18T22:08:53.451Z,20.57
2019-05-18T22:11:28.192Z,20.07
2019-05-18T22:14:03.849Z,19.20
2019-05-18T22:16:38.789Z,19.23
2019-05-18T22:19:13.973Z,19.67
2019-05-18T22:21:48.962Z,19.47
2019-05-18T22:24:24.378Z,18.63
2019-05-18T22:26:59.506Z,20.20
2019-05-18T22:29:35.150Z,19.27
2019-05-18T22:32:11.094Z,19.70
2019-05-18T22:34:47.410Z,18.73
2019-05-18T22:37:22.594Z,17.77
2019-05-18T22:39:57.472Z,18.57
2019-05-18T22:42:32.517Z,18.40
2019-05-18T22:45:08.838Z,18.90
2019-05-18T22:47:45.561Z,19.77
2019-05-18T22:50:21.064Z,17.43
2019-05-18T22:53:02.099Z,16.33
2019-05-18T22:55:36.987Z,18.23
2019-05-18T22:58:11.831Z,16.17
2019-05-18T23:00:48.449Z,17.20
2019-05-18T23:03:27.155Z,16.60
2019-05-18T23:06:02.559Z,16.73
2019-05-18T23:08:38.052Z,15.57
2019-05-18T23:11:17.137Z,16.60
2019-05-18T23:13:53.701Z,16.53
2019-05-18T23:16:31.197Z,16.00
2019-05-18T23:19:08.180Z,16.53
2019-05-18T23:21:43.172Z,14.70
2019-05-18T23:24:21.834Z,15.63
2019-05-18T23:26:59.530Z,12.80
2019-05-18T23:29:58.025Z,14.93
2019-05-18T23:32:34.354Z,15.10
2019-05-18T23:35:11.968Z,15.03
2019-05-18T23:37:47.722Z,15.47
2019-05-18T23:40:25.939Z,14.00
2019-05-18T23:43:19.922Z,10.20
2019-05-18T23:45:56.054Z,12.57
2019-05-18T23:48:32.145Z,12.73
2019-05-18T23:51:08.823Z,11.07
2019-05-18T23:53:44.093Z,10.23
2019-05-18T23:56:21.413Z,8.43
2019-05-18T23:58:56.989Z,8.27
